Time;durP1;ratioP1;P1;durP2;ratioP2;P2;SDS_P1;SDS_P2;PMS_P1;PMS_P2;Temp;Humidity;BMP_temperature;BMP_pressure;BME280_temperature;BME280_humidity;BME280_pressure;Samples;Min_cycle;Max_cycle;Signal;HPM_P1;HPM_P2
2022/07/08 00:00:40;;;;;;;2.97;1.48;;;20.00;1.00;;;;;;5089433;28;20024;-79
2022/07/08 00:03:06;;;;;;;3.80;1.88;;;19.90;1.00;;;;;;5089101;28;20048;-79
2022/07/08 00:05:32;;;;;;;2.85;1.65;;;20.00;1.00;;;;;;5089915;28;20380;-79
2022/07/08 00:07:58;;;;;;;3.78;1.50;;;20.00;1.00;;;;;;5091482;28;20024;-79
2022/07/08 00:10:23;;;;;;;3.78;1.80;;;20.00;1.00;;;;;;5089255;28;20054;-79
2022/07/08 00:12:49;;;;;;;4.28;1.90;;;19.90;1.00;;;;;;5087835;28;20139;-79
2022/07/08 00:15:15;;;;;;;4.28;1.90;;;19.80;1.00;;;;;;5092746;28;20055;-79
2022/07/08 00:17:40;;;;;;;2.92;1.80;;;19.80;1.00;;;;;;5092673;28;20026;-79
2022/07/08 00:20:07;;;;;;;2.67;2.10;;;19.70;1.00;;;;;;5095202;28;20024;-79
2022/07/08 00:22:33;;;;;;;2.50;1.70;;;19.70;1.00;;;;;;5092998;28;20044;-79
2022/07/08 00:25:00;;;;;;;4.22;1.70;;;19.60;1.00;;;;;;5092882;28;20024;-80
2022/07/08 00:27:25;;;;;;;4.60;1.90;;;19.50;1.00;;;;;;5093191;28;20023;-79
2022/07/08 00:29:51;;;;;;;2.97;1.80;;;19.40;1.00;;;;;;5092699;28;20055;-80
2022/07/08 00:32:17;;;;;;;3.20;1.58;;;19.50;1.00;;;;;;5094564;28;20065;-79
2022/07/08 00:34:42;;;;;;;3.45;1.83;;;19.40;1.00;;;;;;5092563;28;20028;-79
2022/07/08 00:37:08;;;;;;;2.65;1.73;;;19.40;1.00;;;;;;5092643;28;20032;-79
2022/07/08 00:39:34;;;;;;;3.35;1.77;;;19.40;1.00;;;;;;5092607;28;20101;-79
2022/07/08 00:42:00;;;;;;;2.63;1.77;;;19.10;1.00;;;;;;5092911;28;20109;-79
2022/07/08 00:44:26;;;;;;;2.40;1.60;;;19.20;1.00;;;;;;5093907;28;20024;-79
2022/07/08 00:46:52;;;;;;;3.28;1.80;;;19.20;1.00;;;;;;5093035;28;20070;-79
2022/07/08 00:49:18;;;;;;;3.17;1.70;;;19.10;1.00;;;;;;5092621;28;20089;-79
2022/07/08 00:51:46;;;;;;;2.15;1.70;;;19.10;1.00;;;;;;5090889;28;20032;-79
2022/07/08 00:54:18;;;;;;;4.10;1.80;;;19.20;1.00;;;;;;5092834;28;20082;-79
2022/07/08 00:56:44;;;;;;;1.80;1.70;;;19.10;1.00;;;;;;5092352;28;20024;-79
2022/07/08 00:59:10;;;;;;;2.63;1.65;;;19.10;1.00;;;;;;5093750;28;20028;-79
2022/07/08 01:01:36;;;;;;;2.38;1.40;;;19.10;1.00;;;;;;5091887;28;20397;-79
2022/07/08 01:04:03;;;;;;;2.65;1.55;;;19.00;1.00;;;;;;5091925;28;20114;-79
2022/07/08 01:06:28;;;;;;;2.10;1.73;;;18.90;1.00;;;;;;5092130;28;20441;-79
2022/07/08 01:08:55;;;;;;;3.20;1.67;;;18.90;1.00;;;;;;5092172;28;20111;-79
2022/07/08 01:11:21;;;;;;;3.28;1.60;;;18.90;1.00;;;;;;5093988;28;20020;-80
2022/07/08 01:13:47;;;;;;;2.65;1.73;;;18.90;1.00;;;;;;5092441;28;20484;-80
2022/07/08 01:16:13;;;;;;;1.83;1.50;;;18.80;1.00;;;;;;5091502;28;20020;-79
2022/07/08 01:18:41;;;;;;;1.52;1.42;;;18.80;1.00;;;;;;5091821;28;20042;-79
2022/07/08 01:21:07;;;;;;;3.78;1.80;;;18.90;1.00;;;;;;5092217;28;20540;-79
2022/07/08 01:23:33;;;;;;;2.17;1.70;;;18.80;1.00;;;;;;5091993;28;20494;-79
2022/07/08 01:26:00;;;;;;;2.35;1.42;;;18.80;1.00;;;;;;5092625;28;20032;-80
2022/07/08 01:28:26;;;;;;;2.40;1.65;;;18.80;1.00;;;;;;5091008;28;20458;-79
2022/07/08 01:30:52;;;;;;;1.75;1.65;;;18.80;1.00;;;;;;5090242;28;20024;-79
2022/07/08 01:33:18;;;;;;;3.10;1.60;;;18.80;1.00;;;;;;5091732;28;20101;-80
2022/07/08 01:35:44;;;;;;;2.88;1.70;;;18.70;1.00;;;;;;5091661;28;20028;-79
2022/07/08 01:38:10;;;;;;;3.55;1.60;;;18.70;1.00;;;;;;5093543;28;20020;-79
2022/07/08 01:40:35;;;;;;;3.78;1.45;;;18.60;1.00;;;;;;5091290;28;20044;-79
2022/07/08 01:43:02;;;;;;;2.33;1.60;;;18.60;1.00;;;;;;5091172;28;20370;-79
2022/07/08 01:45:27;;;;;;;2.53;1.80;;;18.70;1.00;;;;;;5091029;28;20096;-79
2022/07/08 01:47:53;;;;;;;3.05;1.60;;;18.80;1.00;;;;;;5091995;28;20028;-79
2022/07/08 01:50:19;;;;;;;2.85;1.70;;;18.60;1.00;;;;;;5093395;28;20530;-79
2022/07/08 01:52:44;;;;;;;2.63;1.70;;;18.60;1.00;;;;;;5089852;28;20454;-79
2022/07/08 01:55:10;;;;;;;3.92;1.58;;;18.50;1.00;;;;;;5091104;28;20024;-79
2022/07/08 01:57:36;;;;;;;2.58;1.52;;;18.40;1.00;;;;;;5090584;28;20040;-79
2022/07/08 02:00:03;;;;;;;3.30;1.60;;;18.40;1.00;;;;;;5091083;28;20077;-79
2022/07/08 02:02:28;;;;;;;1.60;1.40;;;18.50;1.00;;;;;;5092180;28;20020;-79
2022/07/08 02:04:54;;;;;;;4.68;1.55;;;18.50;1.00;;;;;;5092529;28;20043;-79
2022/07/08 02:07:19;;;;;;;2.45;1.55;;;18.50;1.00;;;;;;5090853;28;20503;-79
2022/07/08 02:09:45;;;;;;;2.85;1.60;;;18.40;1.00;;;;;;5089551;28;20122;-79
2022/07/08 02:12:20;;;;;;;3.00;1.60;;;18.40;1.00;;;;;;5090282;28;20115;-79
2022/07/08 02:14:46;;;;;;;3.50;1.63;;;18.40;1.00;;;;;;5090849;28;20031;-79
2022/07/08 02:17:13;;;;;;;2.90;1.75;;;18.40;1.00;;;;;;5092932;28;20088;-79
2022/07/08 02:19:38;;;;;;;4.50;1.67;;;18.30;1.00;;;;;;5091031;28;20027;-79
2022/07/08 02:22:04;;;;;;;3.17;1.70;;;18.30;1.00;;;;;;5090482;28;20535;-79
2022/07/08 02:24:30;;;;;;;2.15;1.55;;;18.30;1.00;;;;;;5090631;28;20040;-79
2022/07/08 02:26:56;;;;;;;1.92;1.70;;;18.20;1.00;;;;;;5090459;28;20028;-79
2022/07/08 02:29:21;;;;;;;4.88;1.83;;;18.20;1.00;;;;;;5092088;28;20071;-79
2022/07/08 02:31:47;;;;;;;4.30;1.60;;;18.20;1.00;;;;;;5091129;28;20120;-79
2022/07/08 02:34:13;;;;;;;3.88;1.70;;;18.20;1.00;;;;;;5090367;28;20027;-79
2022/07/08 02:36:38;;;;;;;2.65;1.65;;;18.10;1.00;;;;;;5090241;28;20028;-79
2022/07/08 02:39:04;;;;;;;1.70;1.60;;;18.10;1.00;;;;;;5090583;28;20028;-78
2022/07/08 02:41:30;;;;;;;5.47;1.83;;;18.00;1.00;;;;;;5090556;28;20028;-79
2022/07/08 02:43:56;;;;;;;4.68;2.17;;;18.00;1.00;;;;;;5092224;28;20152;-79
2022/07/08 02:46:22;;;;;;;3.22;1.70;;;18.10;1.00;;;;;;5088340;28;20035;-79
2022/07/08 02:48:48;;;;;;;3.17;2.13;;;18.00;1.00;;;;;;5088763;28;20090;-79
2022/07/08 02:51:13;;;;;;;2.03;1.80;;;18.00;1.00;;;;;;5090372;28;20099;-80
2022/07/08 02:53:39;;;;;;;3.22;2.20;;;17.90;1.00;;;;;;5090523;28;20085;-79
2022/07/08 02:56:05;;;;;;;4.45;1.88;;;17.80;1.00;;;;;;5090363;28;20028;-79
2022/07/08 02:58:31;;;;;;;2.50;1.75;;;17.70;1.00;;;;;;5089994;28;20496;-79
2022/07/08 03:00:56;;;;;;;2.08;1.88;;;17.60;1.00;;;;;;5090098;28;20024;-79
2022/07/08 03:03:22;;;;;;;2.03;1.73;;;17.60;1.00;;;;;;5090025;28;20035;-79
2022/07/08 03:05:48;;;;;;;5.10;1.98;;;17.70;1.00;;;;;;5090213;28;20027;-80
2022/07/08 03:08:13;;;;;;;4.10;1.80;;;17.70;1.00;;;;;;5092188;28;20037;-79
2022/07/08 03:10:39;;;;;;;4.15;1.80;;;17.80;1.00;;;;;;5089502;28;20035;-79
2022/07/08 03:13:05;;;;;;;4.47;1.95;;;17.80;1.00;;;;;;5090330;28;20162;-79
2022/07/08 03:15:30;;;;;;;2.78;1.70;;;17.60;1.00;;;;;;5089871;28;20024;-79
2022/07/08 03:17:56;;;;;;;4.32;2.00;;;17.60;1.00;;;;;;5089675;28;20035;-79
2022/07/08 03:20:22;;;;;;;2.05;1.70;;;17.50;1.00;;;;;;5091173;28;20024;-79
2022/07/08 03:22:47;;;;;;;3.15;1.90;;;17.50;1.00;;;;;;5090769;28;20072;-79
2022/07/08 03:25:13;;;;;;;2.53;1.80;;;17.60;1.00;;;;;;5089427;28;20016;-79
2022/07/08 03:27:39;;;;;;;3.67;1.90;;;17.50;1.00;;;;;;5088153;28;20489;-79
2022/07/08 03:30:05;;;;;;;2.53;1.90;;;17.40;1.00;;;;;;5089681;28;20024;-79
2022/07/08 03:32:31;;;;;;;5.50;2.10;;;17.20;1.00;;;;;;5091157;28;20492;-79
2022/07/08 03:34:58;;;;;;;3.65;1.95;;;17.30;1.00;;;;;;5089532;28;20054;-79
2022/07/08 03:37:23;;;;;;;2.42;2.00;;;17.10;1.00;;;;;;5088979;28;20036;-80
2022/07/08 03:39:50;;;;;;;3.05;1.75;;;17.30;1.00;;;;;;5088820;28;20026;-79
2022/07/08 03:42:17;;;;;;;5.00;2.30;;;17.30;1.00;;;;;;5089698;28;20032;-79
2022/07/08 03:44:43;;;;;;;2.88;1.80;;;17.20;1.00;;;;;;5089673;28;20412;-79
2022/07/08 03:47:09;;;;;;;2.40;1.90;;;17.20;1.00;;;;;;5091673;28;20016;-79
2022/07/08 03:49:34;;;;;;;3.90;2.10;;;17.30;1.00;;;;;;5092507;28;20028;-83
2022/07/08 03:52:01;;;;;;;4.07;2.15;;;17.10;1.00;;;;;;5092863;28;20050;-80
2022/07/08 03:54:27;;;;;;;5.88;1.90;;;17.10;1.00;;;;;;5093035;28;20488;-79
2022/07/08 03:56:53;;;;;;;3.90;2.15;;;17.20;1.00;;;;;;5093528;28;20036;-80
2022/07/08 03:59:19;;;;;;;3.58;2.15;;;17.20;1.00;;;;;;5095286;28;20105;-80
2022/07/08 04:01:45;;;;;;;3.33;1.95;;;17.10;1.00;;;;;;5094218;28;20384;-79
2022/07/08 04:04:10;;;;;;;2.63;2.25;;;17.20;1.00;;;;;;5093243;28;20016;-80
2022/07/08 04:06:39;;;;;;;2.40;2.20;;;17.30;1.00;;;;;;5091788;28;20040;-79
2022/07/08 04:09:05;;;;;;;3.47;2.20;;;17.30;1.00;;;;;;5092924;28;20048;-80
2022/07/08 04:11:30;;;;;;;2.22;1.92;;;17.00;1.00;;;;;;5093452;28;20082;-81
2022/07/08 04:13:56;;;;;;;2.78;1.90;;;17.10;1.00;;;;;;5094385;28;20039;-80
2022/07/08 04:16:22;;;;;;;6.68;2.55;;;17.20;1.00;;;;;;5093232;28;20099;-80
2022/07/08 04:18:48;;;;;;;4.43;2.40;;;17.10;1.00;;;;;;5093009;28;20110;-80
2022/07/08 04:21:14;;;;;;;2.88;2.00;;;17.20;1.00;;;;;;5093189;28;20194;-80
2022/07/08 04:23:40;;;;;;;3.95;2.25;;;17.10;1.00;;;;;;5092910;28;20032;-80
2022/07/08 04:26:06;;;;;;;3.03;2.10;;;17.00;1.00;;;;;;5095034;28;20118;-79
2022/07/08 04:28:32;;;;;;;3.50;2.22;;;17.10;1.00;;;;;;5092597;28;20569;-80
2022/07/08 04:30:58;;;;;;;3.10;2.10;;;17.20;1.00;;;;;;5093147;28;20036;-80
2022/07/08 04:33:24;;;;;;;3.03;1.90;;;17.10;1.00;;;;;;5092479;28;20040;-80
2022/07/08 04:35:49;;;;;;;3.60;2.40;;;17.20;1.00;;;;;;5092866;28;20400;-80
2022/07/08 04:38:15;;;;;;;4.25;2.10;;;17.10;1.00;;;;;;5090141;28;20115;-80
2022/07/08 04:40:40;;;;;;;4.65;2.28;;;17.20;1.00;;;;;;5093988;28;20031;-80
2022/07/08 04:43:06;;;;;;;4.45;2.08;;;17.40;1.00;;;;;;5092590;28;20025;-80
2022/07/08 04:45:32;;;;;;;4.20;2.30;;;17.40;1.00;;;;;;5091103;28;20112;-80
2022/07/08 04:47:57;;;;;;;2.72;2.10;;;17.30;1.00;;;;;;5092482;28;20020;-80
2022/07/08 04:50:23;;;;;;;3.80;2.30;;;17.40;1.00;;;;;;5093815;28;20427;-80
2022/07/08 04:52:48;;;;;;;5.47;2.28;;;17.40;1.00;;;;;;5092976;28;20027;-79
2022/07/08 04:55:31;;;;;;;3.35;1.95;;;17.60;1.00;;;;;;5092360;28;20503;-80
2022/07/08 04:58:02;;;;;;;3.30;2.20;;;17.40;1.00;;;;;;5092166;28;20523;-80
2022/07/08 05:00:28;;;;;;;4.22;2.15;;;17.30;1.00;;;;;;5092202;28;20020;-80
2022/07/08 05:02:54;;;;;;;3.55;2.15;;;17.20;1.00;;;;;;5092287;28;20156;-80
2022/07/08 05:05:21;;;;;;;2.88;2.20;;;17.30;1.00;;;;;;5093673;28;20024;-79
2022/07/08 05:07:49;;;;;;;5.93;2.30;;;17.40;1.00;;;;;;5092447;28;20028;-80
2022/07/08 05:10:21;;;;;;;4.35;2.38;;;17.40;1.00;;;;;;5091800;28;20028;-79
2022/07/08 05:12:48;;;;;;;3.35;2.08;;;17.40;1.00;;;;;;5091933;28;20032;-79
2022/07/08 05:15:13;;;;;;;5.22;2.03;;;17.60;1.00;;;;;;5092442;28;20020;-80
2022/07/08 05:17:39;;;;;;;4.43;2.10;;;17.90;1.00;;;;;;5091857;28;20055;-80
2022/07/08 05:20:07;;;;;;;3.92;2.10;;;17.80;1.00;;;;;;5093872;28;20400;-80
2022/07/08 05:22:32;;;;;;;2.63;2.00;;;17.90;1.00;;;;;;5091227;28;20039;-80
2022/07/08 05:24:58;;;;;;;3.63;2.10;;;18.10;1.00;;;;;;5090387;28;20036;-80
2022/07/08 05:27:24;;;;;;;4.03;1.92;;;17.90;1.00;;;;;;5092204;28;20027;-80
2022/07/08 05:29:49;;;;;;;4.75;1.83;;;18.30;1.00;;;;;;5091500;28;20044;-80
2022/07/08 05:32:15;;;;;;;4.38;2.03;;;18.30;1.00;;;;;;5092526;28;20039;-79
2022/07/08 05:34:41;;;;;;;3.13;2.10;;;18.30;1.00;;;;;;5091316;28;20028;-79
2022/07/08 05:37:16;;;;;;;4.85;2.28;;;18.10;1.00;;;;;;5091659;28;20533;-79
2022/07/08 05:39:42;;;;;;;2.80;2.20;;;17.90;1.00;;;;;;5091433;28;20036;-80
2022/07/08 05:42:09;;;;;;;3.78;2.13;;;17.90;1.00;;;;;;5091310;28;20035;-80
2022/07/08 05:44:36;;;;;;;4.20;2.28;;;17.60;1.00;;;;;;5091969;28;20024;-80
2022/07/08 05:47:07;;;;;;;6.13;2.50;;;17.60;1.00;;;;;;5093386;28;20019;-80
2022/07/08 05:49:33;;;;;;;5.32;2.50;;;17.90;1.00;;;;;;5090713;28;20055;-80
2022/07/08 05:51:58;;;;;;;3.70;1.83;;;18.10;1.00;;;;;;5091068;28;20052;-79
2022/07/08 05:54:24;;;;;;;5.28;2.67;;;18.40;1.00;;;;;;5091186;28;20028;-80
2022/07/08 05:56:50;;;;;;;4.60;2.58;;;18.70;1.00;;;;;;5091723;28;20054;-79
2022/07/08 05:59:15;;;;;;;5.63;2.35;;;18.60;1.00;;;;;;5088708;28;20028;-79
2022/07/08 06:01:41;;;;;;;4.40;2.60;;;18.40;1.00;;;;;;5091078;28;20047;-80
2022/07/08 06:04:07;;;;;;;3.30;2.10;;;18.40;1.00;;;;;;5089077;28;20058;-79
2022/07/08 06:06:32;;;;;;;3.67;2.40;;;18.40;1.00;;;;;;5090896;28;20031;-80
2022/07/08 06:08:58;;;;;;;3.88;2.35;;;18.30;1.00;;;;;;5091437;28;20020;-80
2022/07/08 06:11:24;;;;;;;4.78;2.20;;;18.20;1.00;;;;;;5091509;28;20032;-79
2022/07/08 06:13:50;;;;;;;5.32;2.13;;;18.20;1.00;;;;;;5091402;28;20088;-80
2022/07/08 06:16:15;;;;;;;5.22;2.08;;;18.00;1.00;;;;;;5089433;28;20446;-80
2022/07/08 06:18:41;;;;;;;3.60;2.13;;;18.20;1.00;;;;;;5090080;28;20035;-80
2022/07/08 06:21:07;;;;;;;5.53;2.13;;;18.40;1.00;;;;;;5091099;28;20024;-80
2022/07/08 06:23:34;;;;;;;4.53;2.00;;;18.60;1.00;;;;;;5091013;28;20031;-80
2022/07/08 06:26:00;;;;;;;2.70;2.25;;;18.60;1.00;;;;;;5090661;28;20086;-80
2022/07/08 06:28:26;;;;;;;3.92;1.88;;;18.50;1.00;;;;;;5090501;28;20551;-79
2022/07/08 06:30:52;;;;;;;3.92;2.30;;;18.60;1.00;;;;;;5090472;28;20078;-80
2022/07/08 06:33:17;;;;;;;4.63;2.30;;;18.80;1.00;;;;;;5090209;28;20036;-80
2022/07/08 06:35:43;;;;;;;5.60;2.47;;;19.00;1.00;;;;;;5090769;28;20507;-80
2022/07/08 06:38:09;;;;;;;3.67;2.17;;;19.10;1.00;;;;;;5092464;28;20111;-80
2022/07/08 06:40:34;;;;;;;4.30;1.73;;;19.00;1.00;;;;;;5090376;28;20477;-79
2022/07/08 06:43:00;;;;;;;4.78;2.38;;;19.10;1.00;;;;;;5088896;28;20388;-80
2022/07/08 06:45:26;;;;;;;2.63;2.40;;;19.30;1.00;;;;;;5090228;28;20134;-80
2022/07/08 06:47:51;;;;;;;4.45;2.22;;;19.50;1.00;;;;;;5089856;28;20028;-80
2022/07/08 06:50:17;;;;;;;2.50;2.10;;;19.80;1.00;;;;;;5092326;28;20111;-80
2022/07/08 06:52:43;;;;;;;6.97;2.38;;;20.00;1.00;;;;;;5090399;28;20036;-80
2022/07/08 06:55:09;;;;;;;2.65;2.10;;;20.30;1.00;;;;;;5090119;28;20039;-80
2022/07/08 06:57:34;;;;;;;2.03;1.80;;;20.10;1.00;;;;;;5090048;28;20051;-79
2022/07/08 07:00:00;;;;;;;2.63;1.90;;;19.70;1.00;;;;;;5090379;28;20047;-80
2022/07/08 07:02:26;;;;;;;4.07;1.92;;;20.20;1.00;;;;;;5091068;28;20016;-79
2022/07/08 07:04:52;;;;;;;2.85;2.10;;;20.30;1.00;;;;;;5090949;28;20495;-79
2022/07/08 07:07:17;;;;;;;3.05;1.80;;;19.90;1.00;;;;;;5089827;28;20035;-80
2022/07/08 07:09:43;;;;;;;2.65;1.85;;;20.00;1.00;;;;;;5089871;28;20082;-79
2022/07/08 07:12:09;;;;;;;4.38;2.10;;;20.10;1.00;;;;;;5090223;28;20040;-80
2022/07/08 07:14:35;;;;;;;2.70;2.00;;;20.30;1.00;;;;;;5090083;28;20039;-80
2022/07/08 07:17:02;;;;;;;5.28;2.17;;;20.40;1.00;;;;;;5091591;28;20088;-80
2022/07/08 07:19:28;;;;;;;2.75;1.83;;;20.00;1.00;;;;;;5089797;28;20533;-80
2022/07/08 07:21:54;;;;;;;4.25;2.17;;;20.20;1.00;;;;;;5088348;28;20484;-80
2022/07/08 07:24:20;;;;;;;3.28;2.20;;;20.00;1.00;;;;;;5092371;28;20024;-80
2022/07/08 07:26:47;;;;;;;6.95;2.13;;;19.60;1.00;;;;;;5094472;28;20036;-80
2022/07/08 07:29:13;;;;;;;3.85;2.50;;;19.60;1.00;;;;;;5095902;28;20400;-80
2022/07/08 07:31:38;;;;;;;4.55;2.10;;;19.90;1.00;;;;;;5093402;28;20540;-80
2022/07/08 07:34:04;;;;;;;3.58;2.20;;;20.00;1.00;;;;;;5093709;28;20028;-80
2022/07/08 07:36:30;;;;;;;4.93;2.13;;;20.00;1.00;;;;;;5093796;28;20043;-80
2022/07/08 07:38:56;;;;;;;4.63;2.33;;;20.70;1.00;;;;;;5093965;28;20042;-80
2022/07/08 07:41:22;;;;;;;3.88;2.10;;;20.90;1.00;;;;;;5095612;28;20028;-80
2022/07/08 07:43:48;;;;;;;2.10;1.90;;;21.00;1.00;;;;;;5094406;28;20441;-82
2022/07/08 07:46:15;;;;;;;4.60;2.58;;;21.40;1.00;;;;;;5093085;28;20527;-80
2022/07/08 07:48:41;;;;;;;2.35;2.05;;;21.60;1.00;;;;;;5093535;28;20069;-80
2022/07/08 07:51:06;;;;;;;2.60;2.17;;;21.50;1.00;;;;;;5093803;28;20028;-80
2022/07/08 07:53:33;;;;;;;4.55;2.30;;;21.40;1.00;;;;;;5093755;28;20535;-80
2022/07/08 07:55:58;;;;;;;4.22;2.15;;;21.20;1.00;;;;;;5095750;28;20444;-80
2022/07/08 07:58:25;;;;;;;4.82;2.05;;;21.00;1.00;;;;;;5093348;28;20024;-80
2022/07/08 08:00:51;;;;;;;2.78;2.25;;;21.20;1.00;;;;;;5091664;28;20369;-80
2022/07/08 08:03:18;;;;;;;3.95;2.15;;;21.30;1.00;;;;;;5093444;28;20024;-80
2022/07/08 08:05:44;;;;;;;7.90;2.58;;;21.00;1.00;;;;;;5093345;28;20028;-80
2022/07/08 08:08:10;;;;;;;3.42;2.22;;;20.70;1.00;;;;;;5095417;28;20027;-80
2022/07/08 08:10:36;;;;;;;3.03;2.13;;;20.60;1.00;;;;;;5093234;28;20423;-80
2022/07/08 08:13:01;;;;;;;6.43;2.53;;;20.60;1.00;;;;;;5093346;28;20038;-80
2022/07/08 08:15:29;;;;;;;3.70;2.45;;;20.60;1.00;;;;;;5092672;28;20114;-80
2022/07/08 08:17:56;;;;;;;8.43;2.70;;;20.90;1.00;;;;;;5093209;28;20503;-80
2022/07/08 08:20:24;;;;;;;4.43;2.05;;;21.50;1.00;;;;;;5094594;28;20024;-80
2022/07/08 08:22:49;;;;;;;4.20;2.28;;;22.00;1.00;;;;;;5092230;28;20600;-80
2022/07/08 08:25:15;;;;;;;3.55;2.20;;;22.20;1.00;;;;;;5093364;28;20051;-80
2022/07/08 08:27:40;;;;;;;3.13;2.17;;;22.20;1.00;;;;;;5092544;28;20024;-80
2022/07/08 08:30:07;;;;;;;3.35;2.20;;;22.20;1.00;;;;;;5092536;28;20040;-80
2022/07/08 08:32:33;;;;;;;4.10;2.22;;;22.30;1.00;;;;;;5093271;28;20084;-81
2022/07/08 08:34:59;;;;;;;2.90;2.40;;;21.90;1.00;;;;;;5094513;28;20036;-80
2022/07/08 08:37:25;;;;;;;3.00;2.20;;;22.00;1.00;;;;;;5092554;28;20028;-79
2022/07/08 08:39:51;;;;;;;4.90;2.13;;;21.90;1.00;;;;;;5091134;28;20051;-80
2022/07/08 08:42:19;;;;;;;5.63;2.33;;;21.90;1.00;;;;;;5092578;28;20381;-80
2022/07/08 08:44:49;;;;;;;4.55;2.35;;;21.80;1.00;;;;;;5092314;28;20027;-80
2022/07/08 08:47:16;;;;;;;5.78;1.80;;;21.80;1.00;;;;;;5094546;28;20039;-80
2022/07/08 08:49:42;;;;;;;2.75;2.13;;;22.10;1.00;;;;;;5092520;28;20043;-80
2022/07/08 08:52:09;;;;;;;3.80;2.33;;;22.30;1.00;;;;;;5092672;28;20040;-80
2022/07/08 08:54:36;;;;;;;2.85;2.00;;;22.80;1.00;;;;;;5092136;28;20090;-80
2022/07/08 08:57:04;;;;;;;2.65;1.95;;;22.70;1.00;;;;;;5092671;28;20024;-80
2022/07/08 08:59:33;;;;;;;4.35;2.17;;;22.30;1.00;;;;;;5092643;28;20020;-80
2022/07/08 09:02:00;;;;;;;5.28;2.47;;;21.80;1.00;;;;;;5094075;28;20052;-80
2022/07/08 09:04:29;;;;;;;3.38;2.38;;;21.60;1.00;;;;;;5092436;28;20119;-80
2022/07/08 09:06:54;;;;;;;2.67;2.15;;;21.70;1.00;;;;;;5092712;28;20030;-80
2022/07/08 09:09:20;;;;;;;2.58;2.20;;;21.80;1.00;;;;;;5091754;28;20118;-80
2022/07/08 09:11:45;;;;;;;2.50;2.10;;;22.10;1.00;;;;;;5092119;28;20024;-80
2022/07/08 09:14:17;;;;;;;3.58;2.38;;;22.20;1.00;;;;;;5093813;28;20035;-80
2022/07/08 09:17:10;;;;;;;2.50;2.30;;;21.90;1.00;;;;;;5092127;28;20111;-80
2022/07/08 09:19:42;;;;;;;2.75;2.13;;;22.20;1.00;;;;;;5088633;28;20051;-80
2022/07/08 09:22:08;;;;;;;4.88;2.35;;;22.30;1.00;;;;;;5091673;28;20052;-80
2022/07/08 09:24:35;;;;;;;2.70;2.30;;;22.40;1.00;;;;;;5092197;28;20039;-80
2022/07/08 09:27:08;;;;;;;3.20;2.20;;;22.30;1.00;;;;;;5091383;28;20523;-80
2022/07/08 09:29:35;;;;;;;5.15;2.42;;;22.30;1.00;;;;;;5091709;28;20071;-80
2022/07/08 09:32:15;;;;;;;3.28;2.20;;;22.50;1.00;;;;;;5091667;28;20099;-81
2022/07/08 09:34:41;;;;;;;3.42;2.40;;;22.70;1.00;;;;;;5091453;28;20077;-80
2022/07/08 09:37:18;;;;;;;3.90;2.15;;;22.90;1.00;;;;;;5091659;28;20028;-80
2022/07/08 09:39:44;;;;;;;2.75;2.35;;;23.00;1.00;;;;;;5091702;28;20523;-80
2022/07/08 09:42:11;;;;;;;4.05;2.10;;;22.70;1.00;;;;;;5090922;28;20028;-80
2022/07/08 09:44:37;;;;;;;2.20;1.98;;;22.80;1.00;;;;;;5091281;28;20036;-80
2022/07/08 09:47:14;;;;;;;5.55;2.30;;;23.60;1.00;;;;;;5092436;28;20085;-80
2022/07/08 09:49:46;;;;;;;2.30;2.05;;;23.80;1.00;;;;;;5091700;28;20044;-81
2022/07/08 09:52:23;;;;;;;2.83;2.22;;;23.90;1.00;;;;;;5090903;28;20028;-80
2022/07/08 09:55:02;;;;;;;4.28;2.00;;;24.10;1.00;;;;;;5091058;28;20055;-80
2022/07/08 09:57:30;;;;;;;3.88;1.88;;;24.10;1.00;;;;;;5089346;28;20511;-80
2022/07/08 09:59:56;;;;;;;2.47;1.70;;;24.20;1.00;;;;;;5091039;28;20020;-80
2022/07/08 10:02:22;;;;;;;3.35;2.10;;;24.70;1.00;;;;;;5093177;28;20024;-80
2022/07/08 10:04:52;;;;;;;3.53;2.10;;;24.80;1.00;;;;;;5090082;28;20032;-80
2022/07/08 10:07:18;;;;;;;3.33;2.38;;;24.90;1.00;;;;;;5091090;28;20419;-80
2022/07/08 10:09:43;;;;;;;5.03;2.40;;;25.10;1.00;;;;;;5091099;28;20065;-80
2022/07/08 10:12:17;;;;;;;3.75;2.10;;;24.80;1.00;;;;;;5090757;28;20070;-80
2022/07/08 10:14:46;;;;;;;3.70;1.92;;;24.50;1.00;;;;;;5090840;28;20064;-80
2022/07/08 10:17:16;;;;;;;4.03;2.00;;;24.30;1.00;;;;;;5091709;28;20388;-81
2022/07/08 10:19:43;;;;;;;4.38;2.20;;;24.30;1.00;;;;;;5090583;28;20114;-80
2022/07/08 10:22:10;;;;;;;4.45;2.25;;;24.10;1.00;;;;;;5090659;28;20514;-81
2022/07/08 10:24:41;;;;;;;3.13;1.85;;;24.30;1.00;;;;;;5090834;28;20358;-80
2022/07/08 10:27:09;;;;;;;3.47;1.98;;;24.10;1.00;;;;;;5090284;28;20418;-80
2022/07/08 10:29:36;;;;;;;4.53;2.30;;;24.40;1.00;;;;;;5090622;28;20568;-80
2022/07/08 10:32:02;;;;;;;4.07;2.08;;;24.70;1.00;;;;;;5090544;28;20101;-80
2022/07/08 10:34:34;;;;;;;5.60;2.00;;;24.50;1.00;;;;;;5090778;28;20036;-80
2022/07/08 10:37:03;;;;;;;2.45;1.85;;;24.50;1.00;;;;;;5088838;28;20044;-80
2022/07/08 10:39:42;;;;;;;3.67;2.05;;;24.50;1.00;;;;;;5089870;28;20134;-80
2022/07/08 10:42:10;;;;;;;2.30;1.83;;;24.60;1.00;;;;;;5090353;28;20511;-80
2022/07/08 10:44:45;;;;;;;2.30;2.10;;;24.60;1.00;;;;;;5090484;28;20031;-80
2022/07/08 10:47:15;;;;;;;2.67;2.10;;;24.30;1.00;;;;;;5092262;28;20031;-80
2022/07/08 10:49:46;;;;;;;5.05;1.95;;;24.30;1.00;;;;;;5090650;28;20016;-81
2022/07/08 10:52:16;;;;;;;2.50;1.85;;;24.40;1.00;;;;;;5089944;28;20024;-80
2022/07/08 10:54:42;;;;;;;2.90;2.03;;;24.70;1.00;;;;;;5089688;28;20028;-81
2022/07/08 10:57:26;;;;;;;2.47;2.00;;;24.80;1.00;;;;;;5090119;28;20026;-80
2022/07/08 11:00:08;;;;;;;4.25;2.20;;;25.00;1.00;;;;;;5074320;28;20035;-80
2022/07/08 11:02:42;;;;;;;5.07;1.70;;;25.40;1.00;;;;;;5090376;28;20032;-81
2022/07/08 11:05:38;;;;;;;5.03;1.95;;;25.70;1.00;;;;;;5090970;28;20388;-80
2022/07/08 11:08:23;;;;;;;2.15;1.95;;;25.60;1.00;;;;;;5090226;28;20035;-80
2022/07/08 11:10:53;;;;;;;2.67;2.00;;;25.40;1.00;;;;;;5089360;28;20039;-81
2022/07/08 11:13:20;;;;;;;3.28;2.20;;;25.20;1.00;;;;;;5089781;28;20125;-80
2022/07/08 11:15:46;;;;;;;6.75;1.92;;;25.30;1.00;;;;;;5088409;28;20016;-80
2022/07/08 11:18:19;;;;;;;2.92;1.85;;;25.10;1.00;;;;;;5090301;28;20424;-80
2022/07/08 11:20:45;;;;;;;1.98;1.80;;;25.80;1.00;;;;;;5089515;28;20020;-80
2022/07/08 11:23:11;;;;;;;3.90;1.88;;;25.90;1.00;;;;;;5091840;28;20089;-81
2022/07/08 11:25:36;;;;;;;3.58;1.63;;;25.70;1.00;;;;;;5088503;28;20021;-80
2022/07/08 11:28:02;;;;;;;2.35;1.90;;;25.90;1.00;;;;;;5089431;28;20055;-81
2022/07/08 11:30:33;;;;;;;4.47;2.17;;;25.80;1.00;;;;;;5089577;28;20036;-81
2022/07/08 11:32:59;;;;;;;2.53;2.13;;;26.00;1.00;;;;;;5089717;28;20031;-82
2022/07/08 11:35:25;;;;;;;4.18;2.00;;;25.70;1.00;;;;;;5091193;28;20028;-81
2022/07/08 11:37:51;;;;;;;2.53;1.80;;;25.70;1.00;;;;;;5090321;28;20465;-81
2022/07/08 11:40:16;;;;;;;1.88;1.70;;;25.80;1.00;;;;;;5089550;28;20034;-81
2022/07/08 11:42:42;;;;;;;2.53;1.58;;;26.00;1.00;;;;;;5089866;28;20036;-81
2022/07/08 11:45:10;;;;;;;3.55;1.90;;;25.90;1.00;;;;;;5089832;28;20489;-80
2022/07/08 11:47:36;;;;;;;3.38;1.75;;;26.00;1.00;;;;;;5089566;28;20039;-80
2022/07/08 11:50:03;;;;;;;3.92;2.17;;;26.40;1.00;;;;;;5091647;28;20592;-80
2022/07/08 11:52:29;;;;;;;3.53;1.83;;;26.40;1.00;;;;;;5088969;28;20060;-80
2022/07/08 11:54:57;;;;;;;5.57;1.77;;;26.80;1.00;;;;;;5088532;28;20028;-81
2022/07/08 11:57:23;;;;;;;3.88;1.80;;;26.90;1.00;;;;;;5089158;28;20044;-80
2022/07/08 11:59:49;;;;;;;2.50;1.83;;;27.20;1.00;;;;;;5089769;28;20060;-80
2022/07/08 12:02:20;;;;;;;3.60;1.85;;;27.90;1.00;;;;;;5091633;28;20541;-80
2022/07/08 12:04:47;;;;;;;2.03;1.63;;;27.90;1.00;;;;;;5089327;28;20020;-80
2022/07/08 12:07:20;;;;;;;1.88;1.70;;;28.80;1.00;;;;;;5089085;28;20020;-81
2022/07/08 12:10:04;;;;;;;2.78;1.35;;;30.90;1.00;;;;;;5090951;28;20554;-80
2022/07/08 12:12:31;;;;;;;2.00;1.90;;;32.30;1.00;;;;;;5092911;28;20032;-81
2022/07/08 12:15:08;;;;;;;3.20;1.90;;;33.10;1.00;;;;;;5093221;28;20024;-81
2022/07/08 12:17:34;;;;;;;4.53;2.00;;;34.50;1.00;;;;;;5093505;28;20025;-81
2022/07/08 12:19:59;;;;;;;3.53;1.60;;;34.90;1.00;;;;;;5094932;28;20107;-81
2022/07/08 12:22:44;;;;;;;3.97;1.90;;;34.50;1.00;;;;;;5092497;28;20020;-81
2022/07/08 12:25:15;;;;;;;4.00;1.90;;;35.00;1.00;;;;;;5093487;28;20033;-81
2022/07/08 12:27:41;;;;;;;4.05;1.40;;;36.20;1.00;;;;;;5092896;28;20481;-80
2022/07/08 12:30:08;;;;;;;3.15;1.77;;;36.30;1.00;;;;;;5092933;28;20024;-81
2022/07/08 12:32:41;;;;;;;2.53;1.40;;;36.00;1.00;;;;;;5093815;28;20119;-81
2022/07/08 12:35:11;;;;;;;1.70;1.30;;;36.00;1.00;;;;;;5093389;28;20496;-81
2022/07/08 12:37:38;;;;;;;1.50;1.30;;;36.50;1.00;;;;;;5092408;28;20024;-81
2022/07/08 12:40:18;;;;;;;1.95;1.58;;;37.10;1.00;;;;;;5092916;28;20024;-81
2022/07/08 12:43:01;;;;;;;2.22;1.40;;;36.30;1.00;;;;;;5092568;28;20365;-81
2022/07/08 12:45:28;;;;;;;4.30;1.60;;;36.00;1.00;;;;;;5092478;28;20027;-80
2022/07/08 12:47:54;;;;;;;2.42;1.38;;;35.50;1.00;;;;;;5092547;28;20107;-81
2022/07/08 12:50:20;;;;;;;2.40;1.42;;;35.40;1.00;;;;;;5094309;28;20170;-81
2022/07/08 12:52:46;;;;;;;1.77;1.20;;;35.60;1.00;;;;;;5091447;28;20527;-81
2022/07/08 12:55:12;;;;;;;2.17;1.40;;;35.40;1.00;;;;;;5092533;28;20102;-81
2022/07/08 12:57:37;;;;;;;3.38;1.20;;;35.60;1.00;;;;;;5092292;28;20480;-80